sensor_id;sensor_type;location;lat;lon;timestamp;P1;durP1;ratioP1;P2;durP2;ratioP2
22965;SDS011;11649;48.090;9.754;2022-08-03T00:01:48;4.43;;;2.35;;
22965;SDS011;11649;48.090;9.754;2022-08-03T00:04:15;2.88;;;1.90;;
22965;SDS011;11649;48.090;9.754;2022-08-03T00:06:42;7.40;;;2.45;;
22965;SDS011;11649;48.090;9.754;2022-08-03T00:09:09;6.43;;;2.70;;
22965;SDS011;11649;48.090;9.754;2022-08-03T00:11:37;3.38;;;2.45;;
22965;SDS011;11649;48.090;9.754;2022-08-03T00:14:05;4.00;;;1.90;;
22965;SDS011;11649;48.090;9.754;2022-08-03T00:16:32;5.38;;;2.42;;
22965;SDS011;11649;48.090;9.754;2022-08-03T00:18:59;2.67;;;2.20;;
22965;SDS011;11649;48.090;9.754;2022-08-03T00:21:27;3.08;;;2.28;;
22965;SDS011;11649;48.090;9.754;2022-08-03T00:23:54;3.10;;;2.20;;
22965;SDS011;11649;48.090;9.754;2022-08-03T00:26:21;4.25;;;2.30;;
22965;SDS011;11649;48.090;9.754;2022-08-03T00:28:48;2.50;;;2.10;;
22965;SDS011;11649;48.090;9.754;2022-08-03T00:31:15;3.15;;;2.10;;
22965;SDS011;11649;48.090;9.754;2022-08-03T00:34:02;4.60;;;2.33;;
22965;SDS011;11649;48.090;9.754;2022-08-03T00:36:29;3.40;;;2.08;;
22965;SDS011;11649;48.090;9.754;2022-08-03T00:38:56;3.95;;;2.22;;
22965;SDS011;11649;48.090;9.754;2022-08-03T00:41:23;3.35;;;1.95;;
22965;SDS011;11649;48.090;9.754;2022-08-03T00:43:49;2.58;;;2.08;;
22965;SDS011;11649;48.090;9.754;2022-08-03T00:46:16;3.47;;;2.20;;
22965;SDS011;11649;48.090;9.754;2022-08-03T00:48:50;7.47;;;2.35;;
22965;SDS011;11649;48.090;9.754;2022-08-03T00:51:18;4.90;;;2.15;;
22965;SDS011;11649;48.090;9.754;2022-08-03T00:53:46;5.25;;;2.33;;
22965;SDS011;11649;48.090;9.754;2022-08-03T00:56:14;5.00;;;2.30;;
22965;SDS011;11649;48.090;9.754;2022-08-03T00:58:42;3.00;;;2.10;;
22965;SDS011;11649;48.090;9.754;2022-08-03T01:01:10;4.45;;;2.10;;
22965;SDS011;11649;48.090;9.754;2022-08-03T01:03:38;5.22;;;2.40;;
22965;SDS011;11649;48.090;9.754;2022-08-03T01:08:43;2.83;;;2.28;;
22965;SDS011;11649;48.090;9.754;2022-08-03T01:14:38;7.30;;;2.55;;
22965;SDS011;11649;48.090;9.754;2022-08-03T01:17:30;2.90;;;2.13;;
22965;SDS011;11649;48.090;9.754;2022-08-03T01:20:07;2.53;;;2.13;;
22965;SDS011;11649;48.090;9.754;2022-08-03T01:22:50;5.00;;;2.30;;
22965;SDS011;11649;48.090;9.754;2022-08-03T01:28:40;3.30;;;2.08;;
22965;SDS011;11649;48.090;9.754;2022-08-03T01:31:36;6.20;;;2.42;;
22965;SDS011;11649;48.090;9.754;2022-08-03T01:34:29;4.03;;;2.00;;
22965;SDS011;11649;48.090;9.754;2022-08-03T01:36:59;8.07;;;2.08;;
22965;SDS011;11649;48.090;9.754;2022-08-03T01:39:30;3.75;;;2.22;;
22965;SDS011;11649;48.090;9.754;2022-08-03T01:41:59;2.72;;;2.03;;
22965;SDS011;11649;48.090;9.754;2022-08-03T01:44:33;4.68;;;2.30;;
22965;SDS011;11649;48.090;9.754;2022-08-03T01:47:02;4.43;;;2.50;;
22965;SDS011;11649;48.090;9.754;2022-08-03T01:49:32;3.50;;;2.08;;
22965;SDS011;11649;48.090;9.754;2022-08-03T01:52:04;2.55;;;2.15;;
22965;SDS011;11649;48.090;9.754;2022-08-03T01:54:36;3.83;;;2.13;;
22965;SDS011;11649;48.090;9.754;2022-08-03T01:57:07;3.70;;;2.20;;
22965;SDS011;11649;48.090;9.754;2022-08-03T01:59:35;3.30;;;2.10;;
22965;SDS011;11649;48.090;9.754;2022-08-03T02:02:05;2.30;;;1.90;;
22965;SDS011;11649;48.090;9.754;2022-08-03T02:04:54;3.08;;;2.00;;
22965;SDS011;11649;48.090;9.754;2022-08-03T02:07:23;4.65;;;2.20;;
22965;SDS011;11649;48.090;9.754;2022-08-03T02:09:51;2.85;;;2.20;;
22965;SDS011;11649;48.090;9.754;2022-08-03T02:12:21;6.72;;;2.50;;
22965;SDS011;11649;48.090;9.754;2022-08-03T02:14:50;2.50;;;2.30;;
22965;SDS011;11649;48.090;9.754;2022-08-03T02:17:19;4.55;;;2.13;;
22965;SDS011;11649;48.090;9.754;2022-08-03T02:20:05;3.55;;;2.40;;
22965;SDS011;11649;48.090;9.754;2022-08-03T02:22:38;5.80;;;2.45;;
22965;SDS011;11649;48.090;9.754;2022-08-03T02:25:06;4.10;;;2.20;;
22965;SDS011;11649;48.090;9.754;2022-08-03T02:27:35;4.75;;;2.33;;
22965;SDS011;11649;48.090;9.754;2022-08-03T02:30:09;8.77;;;2.50;;
22965;SDS011;11649;48.090;9.754;2022-08-03T02:32:38;2.88;;;2.30;;
22965;SDS011;11649;48.090;9.754;2022-08-03T02:35:08;4.45;;;2.42;;
22965;SDS011;11649;48.090;9.754;2022-08-03T02:37:42;4.43;;;2.40;;
22965;SDS011;11649;48.090;9.754;2022-08-03T02:40:15;5.05;;;2.40;;
22965;SDS011;11649;48.090;9.754;2022-08-03T02:42:44;3.88;;;2.38;;
22965;SDS011;11649;48.090;9.754;2022-08-03T02:45:14;3.42;;;2.50;;
22965;SDS011;11649;48.090;9.754;2022-08-03T02:47:45;2.65;;;2.45;;
22965;SDS011;11649;48.090;9.754;2022-08-03T02:50:21;3.20;;;2.30;;
22965;SDS011;11649;48.090;9.754;2022-08-03T02:52:49;4.93;;;2.58;;
22965;SDS011;11649;48.090;9.754;2022-08-03T02:55:18;3.15;;;2.75;;
22965;SDS011;11649;48.090;9.754;2022-08-03T02:57:47;3.10;;;2.53;;
22965;SDS011;11649;48.090;9.754;2022-08-03T03:00:16;2.45;;;2.25;;
22965;SDS011;11649;48.090;9.754;2022-08-03T03:02:54;2.92;;;2.70;;
22965;SDS011;11649;48.090;9.754;2022-08-03T03:05:23;3.15;;;2.33;;
22965;SDS011;11649;48.090;9.754;2022-08-03T03:08:14;5.57;;;2.60;;
22965;SDS011;11649;48.090;9.754;2022-08-03T03:10:46;7.70;;;2.88;;
22965;SDS011;11649;48.090;9.754;2022-08-03T03:13:18;3.38;;;2.60;;
22965;SDS011;11649;48.090;9.754;2022-08-03T03:15:47;8.35;;;2.58;;
22965;SDS011;11649;48.090;9.754;2022-08-03T03:18:15;4.53;;;2.92;;
22965;SDS011;11649;48.090;9.754;2022-08-03T03:20:47;3.78;;;2.53;;
22965;SDS011;11649;48.090;9.754;2022-08-03T03:23:16;4.55;;;2.72;;
22965;SDS011;11649;48.090;9.754;2022-08-03T03:25:44;3.20;;;2.53;;
22965;SDS011;11649;48.090;9.754;2022-08-03T03:28:12;4.93;;;2.70;;
22965;SDS011;11649;48.090;9.754;2022-08-03T03:30:41;5.68;;;2.78;;
22965;SDS011;11649;48.090;9.754;2022-08-03T03:33:08;3.33;;;2.80;;
22965;SDS011;11649;48.090;9.754;2022-08-03T03:35:35;5.13;;;3.15;;
22965;SDS011;11649;48.090;9.754;2022-08-03T03:38:04;3.13;;;2.47;;
22965;SDS011;11649;48.090;9.754;2022-08-03T03:40:33;5.95;;;2.83;;
22965;SDS011;11649;48.090;9.754;2022-08-03T03:43:01;4.88;;;3.10;;
22965;SDS011;11649;48.090;9.754;2022-08-03T03:45:28;4.38;;;3.25;;
22965;SDS011;11649;48.090;9.754;2022-08-03T03:47:58;3.58;;;3.00;;
22965;SDS011;11649;48.090;9.754;2022-08-03T03:50:26;3.50;;;2.90;;
22965;SDS011;11649;48.090;9.754;2022-08-03T03:52:54;2.78;;;2.50;;
22965;SDS011;11649;48.090;9.754;2022-08-03T03:55:20;3.58;;;2.80;;
22965;SDS011;11649;48.090;9.754;2022-08-03T03:57:48;6.93;;;2.78;;
22965;SDS011;11649;48.090;9.754;2022-08-03T04:00:15;3.63;;;2.60;;
22965;SDS011;11649;48.090;9.754;2022-08-03T04:02:44;4.75;;;2.90;;
22965;SDS011;11649;48.090;9.754;2022-08-03T04:05:12;4.65;;;2.70;;
22965;SDS011;11649;48.090;9.754;2022-08-03T04:10:45;4.22;;;2.53;;
22965;SDS011;11649;48.090;9.754;2022-08-03T04:13:38;3.35;;;2.60;;
22965;SDS011;11649;48.090;9.754;2022-08-03T04:16:11;3.60;;;2.55;;
22965;SDS011;11649;48.090;9.754;2022-08-03T04:18:40;3.10;;;2.80;;
22965;SDS011;11649;48.090;9.754;2022-08-03T04:21:10;7.13;;;2.92;;
22965;SDS011;11649;48.090;9.754;2022-08-03T04:23:42;3.83;;;2.50;;
22965;SDS011;11649;48.090;9.754;2022-08-03T04:26:13;4.03;;;2.47;;
22965;SDS011;11649;48.090;9.754;2022-08-03T04:28:43;3.60;;;2.33;;
22965;SDS011;11649;48.090;9.754;2022-08-03T04:31:12;4.53;;;3.33;;
22965;SDS011;11649;48.090;9.754;2022-08-03T04:33:42;3.42;;;2.70;;
22965;SDS011;11649;48.090;9.754;2022-08-03T04:36:12;3.20;;;2.80;;
22965;SDS011;11649;48.090;9.754;2022-08-03T04:38:53;4.97;;;3.00;;
22965;SDS011;11649;48.090;9.754;2022-08-03T04:41:27;7.20;;;2.80;;
22965;SDS011;11649;48.090;9.754;2022-08-03T04:43:57;5.07;;;2.83;;
22965;SDS011;11649;48.090;9.754;2022-08-03T04:46:25;3.22;;;2.90;;
22965;SDS011;11649;48.090;9.754;2022-08-03T04:48:58;3.28;;;2.70;;
22965;SDS011;11649;48.090;9.754;2022-08-03T04:51:33;5.30;;;3.03;;
22965;SDS011;11649;48.090;9.754;2022-08-03T04:54:03;4.28;;;2.70;;
22965;SDS011;11649;48.090;9.754;2022-08-03T04:56:32;4.78;;;2.55;;
22965;SDS011;11649;48.090;9.754;2022-08-03T04:58:59;3.83;;;2.80;;
22965;SDS011;11649;48.090;9.754;2022-08-03T05:01:26;5.35;;;2.53;;
22965;SDS011;11649;48.090;9.754;2022-08-03T05:03:54;4.80;;;2.47;;
22965;SDS011;11649;48.090;9.754;2022-08-03T05:06:20;3.47;;;2.90;;
22965;SDS011;11649;48.090;9.754;2022-08-03T05:08:50;8.18;;;3.22;;
22965;SDS011;11649;48.090;9.754;2022-08-03T05:11:17;5.10;;;3.13;;
22965;SDS011;11649;48.090;9.754;2022-08-03T05:13:44;6.10;;;2.67;;
22965;SDS011;11649;48.090;9.754;2022-08-03T05:16:11;4.53;;;3.33;;
22965;SDS011;11649;48.090;9.754;2022-08-03T05:18:39;5.00;;;3.20;;
22965;SDS011;11649;48.090;9.754;2022-08-03T05:21:08;3.47;;;3.03;;
22965;SDS011;11649;48.090;9.754;2022-08-03T05:23:35;3.50;;;3.20;;
22965;SDS011;11649;48.090;9.754;2022-08-03T05:26:03;7.45;;;3.60;;
22965;SDS011;11649;48.090;9.754;2022-08-03T05:28:30;5.80;;;4.00;;
22965;SDS011;11649;48.090;9.754;2022-08-03T05:30:56;6.53;;;3.70;;
22965;SDS011;11649;48.090;9.754;2022-08-03T05:33:23;7.40;;;3.75;;
22965;SDS011;11649;48.090;9.754;2022-08-03T05:35:50;6.93;;;4.35;;
22965;SDS011;11649;48.090;9.754;2022-08-03T05:38:29;6.57;;;4.88;;
22965;SDS011;11649;48.090;9.754;2022-08-03T05:41:00;6.65;;;5.57;;
22965;SDS011;11649;48.090;9.754;2022-08-03T05:43:49;7.22;;;5.35;;
22965;SDS011;11649;48.090;9.754;2022-08-03T05:46:20;11.60;;;5.40;;
22965;SDS011;11649;48.090;9.754;2022-08-03T05:48:48;7.18;;;5.15;;
22965;SDS011;11649;48.090;9.754;2022-08-03T05:51:15;5.13;;;4.63;;
22965;SDS011;11649;48.090;9.754;2022-08-03T05:53:43;4.80;;;4.40;;
22965;SDS011;11649;48.090;9.754;2022-08-03T05:56:10;5.32;;;4.78;;
22965;SDS011;11649;48.090;9.754;2022-08-03T05:58:44;5.13;;;4.63;;
22965;SDS011;11649;48.090;9.754;2022-08-03T06:01:13;5.10;;;4.00;;
22965;SDS011;11649;48.090;9.754;2022-08-03T06:03:41;4.53;;;4.13;;
22965;SDS011;11649;48.090;9.754;2022-08-03T06:06:08;5.32;;;4.53;;
22965;SDS011;11649;48.090;9.754;2022-08-03T06:08:35;5.30;;;4.32;;
22965;SDS011;11649;48.090;9.754;2022-08-03T06:11:02;4.50;;;4.10;;
22965;SDS011;11649;48.090;9.754;2022-08-03T06:13:29;4.43;;;3.83;;
22965;SDS011;11649;48.090;9.754;2022-08-03T06:15:55;4.15;;;3.65;;
22965;SDS011;11649;48.090;9.754;2022-08-03T06:18:22;4.20;;;3.80;;
22965;SDS011;11649;48.090;9.754;2022-08-03T06:20:50;5.15;;;3.65;;
22965;SDS011;11649;48.090;9.754;2022-08-03T06:23:17;4.22;;;3.83;;
22965;SDS011;11649;48.090;9.754;2022-08-03T06:25:45;5.80;;;4.20;;
22965;SDS011;11649;48.090;9.754;2022-08-03T06:28:12;4.00;;;3.60;;
22965;SDS011;11649;48.090;9.754;2022-08-03T06:30:59;5.35;;;3.78;;
22965;SDS011;11649;48.090;9.754;2022-08-03T06:33:27;3.97;;;3.30;;
22965;SDS011;11649;48.090;9.754;2022-08-03T06:36:14;3.63;;;3.33;;
22965;SDS011;11649;48.090;9.754;2022-08-03T06:38:41;3.75;;;3.10;;
22965;SDS011;11649;48.090;9.754;2022-08-03T06:41:07;4.85;;;3.20;;
22965;SDS011;11649;48.090;9.754;2022-08-03T06:43:34;6.00;;;4.65;;
22965;SDS011;11649;48.090;9.754;2022-08-03T06:46:22;4.60;;;3.30;;
22965;SDS011;11649;48.090;9.754;2022-08-03T06:48:51;4.20;;;3.33;;
22965;SDS011;11649;48.090;9.754;2022-08-03T06:51:18;3.15;;;2.92;;
22965;SDS011;11649;48.090;9.754;2022-08-03T06:53:45;3.33;;;2.63;;
22965;SDS011;11649;48.090;9.754;2022-08-03T06:56:11;3.53;;;3.20;;
22965;SDS011;11649;48.090;9.754;2022-08-03T06:58:38;4.05;;;3.05;;
22965;SDS011;11649;48.090;9.754;2022-08-03T07:01:05;4.25;;;2.50;;
22965;SDS011;11649;48.090;9.754;2022-08-03T07:03:32;3.92;;;2.70;;
22965;SDS011;11649;48.090;9.754;2022-08-03T07:05:59;3.50;;;3.00;;
22965;SDS011;11649;48.090;9.754;2022-08-03T07:08:26;3.40;;;2.60;;
22965;SDS011;11649;48.090;9.754;2022-08-03T07:10:59;6.10;;;3.05;;
22965;SDS011;11649;48.090;9.754;2022-08-03T07:13:26;2.95;;;2.40;;
22965;SDS011;11649;48.090;9.754;2022-08-03T07:15:53;3.83;;;2.47;;
22965;SDS011;11649;48.090;9.754;2022-08-03T07:18:21;6.55;;;3.08;;
22965;SDS011;11649;48.090;9.754;2022-08-03T07:20:55;4.10;;;2.90;;
22965;SDS011;11649;48.090;9.754;2022-08-03T07:23:22;3.28;;;2.72;;
22965;SDS011;11649;48.090;9.754;2022-08-03T07:25:51;3.40;;;2.63;;
22965;SDS011;11649;48.090;9.754;2022-08-03T07:28:18;2.78;;;2.50;;
22965;SDS011;11649;48.090;9.754;2022-08-03T07:30:45;4.40;;;2.20;;
22965;SDS011;11649;48.090;9.754;2022-08-03T07:33:12;2.60;;;2.40;;
22965;SDS011;11649;48.090;9.754;2022-08-03T07:35:40;3.60;;;2.35;;
22965;SDS011;11649;48.090;9.754;2022-08-03T07:38:07;3.50;;;2.38;;
22965;SDS011;11649;48.090;9.754;2022-08-03T07:40:34;2.90;;;2.20;;
22965;SDS011;11649;48.090;9.754;2022-08-03T07:43:01;2.05;;;1.80;;
22965;SDS011;11649;48.090;9.754;2022-08-03T07:45:29;3.03;;;2.20;;
22965;SDS011;11649;48.090;9.754;2022-08-03T07:47:56;2.10;;;1.90;;
22965;SDS011;11649;48.090;9.754;2022-08-03T07:50:23;2.83;;;1.80;;
22965;SDS011;11649;48.090;9.754;2022-08-03T07:52:50;4.65;;;1.90;;
22965;SDS011;11649;48.090;9.754;2022-08-03T07:55:19;7.80;;;2.28;;
22965;SDS011;11649;48.090;9.754;2022-08-03T07:58:07;2.58;;;1.83;;
22965;SDS011;11649;48.090;9.754;2022-08-03T08:00:37;2.00;;;1.80;;
22965;SDS011;11649;48.090;9.754;2022-08-03T08:03:04;2.70;;;1.67;;
22965;SDS011;11649;48.090;9.754;2022-08-03T08:05:31;1.92;;;1.60;;
22965;SDS011;11649;48.090;9.754;2022-08-03T08:07:59;2.20;;;1.70;;
22965;SDS011;11649;48.090;9.754;2022-08-03T08:10:27;1.90;;;1.50;;
22965;SDS011;11649;48.090;9.754;2022-08-03T08:12:54;1.40;;;1.30;;
22965;SDS011;11649;48.090;9.754;2022-08-03T08:15:21;1.77;;;1.40;;
22965;SDS011;11649;48.090;9.754;2022-08-03T08:17:49;2.13;;;1.17;;
22965;SDS011;11649;48.090;9.754;2022-08-03T08:20:20;2.38;;;1.35;;
22965;SDS011;11649;48.090;9.754;2022-08-03T08:23:04;1.35;;;1.25;;
22965;SDS011;11649;48.090;9.754;2022-08-03T08:25:52;1.67;;;1.40;;
22965;SDS011;11649;48.090;9.754;2022-08-03T08:28:20;1.35;;;1.25;;
22965;SDS011;11649;48.090;9.754;2022-08-03T08:30:58;1.88;;;1.30;;
22965;SDS011;11649;48.090;9.754;2022-08-03T08:33:25;1.88;;;1.05;;
22965;SDS011;11649;48.090;9.754;2022-08-03T08:36:12;2.17;;;1.20;;
22965;SDS011;11649;48.090;9.754;2022-08-03T08:38:40;1.88;;;1.20;;
22965;SDS011;11649;48.090;9.754;2022-08-03T08:41:10;2.83;;;1.27;;
22965;SDS011;11649;48.090;9.754;2022-08-03T08:43:38;3.88;;;1.00;;
22965;SDS011;11649;48.090;9.754;2022-08-03T08:46:05;1.50;;;1.20;;
22965;SDS011;11649;48.090;9.754;2022-08-03T08:48:34;2.20;;;1.20;;
22965;SDS011;11649;48.090;9.754;2022-08-03T08:51:05;1.27;;;1.17;;
22965;SDS011;11649;48.090;9.754;2022-08-03T08:53:35;1.25;;;1.02;;
22965;SDS011;11649;48.090;9.754;2022-08-03T08:56:02;1.92;;;1.00;;
22965;SDS011;11649;48.090;9.754;2022-08-03T08:58:33;2.65;;;1.30;;
22965;SDS011;11649;48.090;9.754;2022-08-03T09:01:04;1.42;;;1.33;;
22965;SDS011;11649;48.090;9.754;2022-08-03T09:03:34;1.65;;;1.40;;
22965;SDS011;11649;48.090;9.754;2022-08-03T09:06:01;1.48;;;1.30;;
22965;SDS011;11649;48.090;9.754;2022-08-03T09:08:30;1.80;;;1.10;;
22965;SDS011;11649;48.090;9.754;2022-08-03T09:10:58;3.75;;;1.20;;
22965;SDS011;11649;48.090;9.754;2022-08-03T09:13:25;1.15;;;1.05;;
22965;SDS011;11649;48.090;9.754;2022-08-03T09:16:08;1.20;;;1.10;;
22965;SDS011;11649;48.090;9.754;2022-08-03T09:18:40;1.25;;;0.93;;
22965;SDS011;11649;48.090;9.754;2022-08-03T09:21:27;1.35;;;1.25;;
22965;SDS011;11649;48.090;9.754;2022-08-03T09:23:59;1.27;;;1.13;;
22965;SDS011;11649;48.090;9.754;2022-08-03T09:26:30;2.03;;;1.10;;
22965;SDS011;11649;48.090;9.754;2022-08-03T09:29:05;1.83;;;1.10;;
22965;SDS011;11649;48.090;9.754;2022-08-03T09:34:10;1.10;;;1.00;;
22965;SDS011;11649;48.090;9.754;2022-08-03T09:36:40;1.83;;;1.20;;
22965;SDS011;11649;48.090;9.754;2022-08-03T09:39:16;1.13;;;1.02;;
22965;SDS011;11649;48.090;9.754;2022-08-03T09:44:44;1.58;;;1.17;;
22965;SDS011;11649;48.090;9.754;2022-08-03T09:47:29;1.75;;;1.20;;
22965;SDS011;11649;48.090;9.754;2022-08-03T09:52:30;1.10;;;1.00;;
22965;SDS011;11649;48.090;9.754;2022-08-03T09:55:15;1.92;;;1.13;;
22965;SDS011;11649;48.090;9.754;2022-08-03T09:58:06;1.98;;;1.15;;
22965;SDS011;11649;48.090;9.754;2022-08-03T10:03:31;1.77;;;1.15;;
22965;SDS011;11649;48.090;9.754;2022-08-03T10:06:16;1.27;;;1.15;;
22965;SDS011;11649;48.090;9.754;2022-08-03T10:08:45;1.30;;;1.20;;
22965;SDS011;11649;48.090;9.754;2022-08-03T10:11:12;1.20;;;1.10;;
22965;SDS011;11649;48.090;9.754;2022-08-03T10:13:55;3.13;;;1.50;;
22965;SDS011;11649;48.090;9.754;2022-08-03T10:16:27;2.08;;;1.10;;
22965;SDS011;11649;48.090;9.754;2022-08-03T10:18:58;1.52;;;1.10;;
22965;SDS011;11649;48.090;9.754;2022-08-03T10:21:25;1.30;;;1.20;;
22965;SDS011;11649;48.090;9.754;2022-08-03T10:23:57;1.80;;;1.20;;
22965;SDS011;11649;48.090;9.754;2022-08-03T10:26:24;1.27;;;1.17;;
22965;SDS011;11649;48.090;9.754;2022-08-03T10:28:54;3.22;;;1.30;;
22965;SDS011;11649;48.090;9.754;2022-08-03T10:31:23;2.88;;;1.25;;
22965;SDS011;11649;48.090;9.754;2022-08-03T10:33:51;1.95;;;1.17;;
22965;SDS011;11649;48.090;9.754;2022-08-03T10:36:22;2.15;;;1.30;;
22965;SDS011;11649;48.090;9.754;2022-08-03T10:38:53;1.70;;;1.20;;
22965;SDS011;11649;48.090;9.754;2022-08-03T10:41:25;1.23;;;1.08;;
22965;SDS011;11649;48.090;9.754;2022-08-03T10:44:07;1.17;;;1.08;;
22965;SDS011;11649;48.090;9.754;2022-08-03T10:46:38;1.33;;;1.10;;
22965;SDS011;11649;48.090;9.754;2022-08-03T10:49:13;1.73;;;1.20;;
22965;SDS011;11649;48.090;9.754;2022-08-03T10:52:00;2.22;;;1.23;;
22965;SDS011;11649;48.090;9.754;2022-08-03T10:54:39;1.30;;;1.20;;
22965;SDS011;11649;48.090;9.754;2022-08-03T10:57:44;1.20;;;1.10;;
22965;SDS011;11649;48.090;9.754;2022-08-03T11:00:17;2.65;;;1.30;;
22965;SDS011;11649;48.090;9.754;2022-08-03T11:05:32;3.67;;;1.23;;
22965;SDS011;11649;48.090;9.754;2022-08-03T11:11:01;1.20;;;1.10;;
22965;SDS011;11649;48.090;9.754;2022-08-03T11:13:56;1.20;;;1.10;;
22965;SDS011;11649;48.090;9.754;2022-08-03T11:16:28;1.38;;;1.27;;
22965;SDS011;11649;48.090;9.754;2022-08-03T11:19:01;1.80;;;1.30;;
22965;SDS011;11649;48.090;9.754;2022-08-03T11:27:17;1.20;;;1.10;;
22965;SDS011;11649;48.090;9.754;2022-08-03T11:35:20;1.33;;;1.23;;
22965;SDS011;11649;48.090;9.754;2022-08-03T11:40:34;1.30;;;1.20;;
22965;SDS011;11649;48.090;9.754;2022-08-03T11:48:27;2.70;;;1.63;;
22965;SDS011;11649;48.090;9.754;2022-08-03T11:51:00;1.35;;;1.25;;
22965;SDS011;11649;48.090;9.754;2022-08-03T11:53:28;1.33;;;1.23;;
22965;SDS011;11649;48.090;9.754;2022-08-03T11:55:57;1.45;;;1.35;;
22965;SDS011;11649;48.090;9.754;2022-08-03T11:58:25;1.52;;;1.40;;
22965;SDS011;11649;48.090;9.754;2022-08-03T12:01:13;1.55;;;1.20;;
22965;SDS011;11649;48.090;9.754;2022-08-03T12:03:48;1.40;;;1.30;;
22965;SDS011;11649;48.090;9.754;2022-08-03T12:06:16;2.50;;;1.48;;
22965;SDS011;11649;48.090;9.754;2022-08-03T12:08:44;2.95;;;1.50;;
22965;SDS011;11649;48.090;9.754;2022-08-03T12:11:12;1.75;;;1.30;;
22965;SDS011;11649;48.090;9.754;2022-08-03T12:13:47;4.40;;;1.40;;
22965;SDS011;11649;48.090;9.754;2022-08-03T12:16:36;1.48;;;1.10;;
22965;SDS011;11649;48.090;9.754;2022-08-03T12:19:04;1.30;;;1.20;;
22965;SDS011;11649;48.090;9.754;2022-08-03T12:21:34;1.42;;;1.33;;
22965;SDS011;11649;48.090;9.754;2022-08-03T12:24:22;1.40;;;1.30;;
22965;SDS011;11649;48.090;9.754;2022-08-03T12:26:49;1.40;;;1.30;;
22965;SDS011;11649;48.090;9.754;2022-08-03T12:29:25;1.88;;;1.20;;
22965;SDS011;11649;48.090;9.754;2022-08-03T12:31:51;1.42;;;1.30;;
22965;SDS011;11649;48.090;9.754;2022-08-03T12:34:18;2.65;;;1.30;;
22965;SDS011;11649;48.090;9.754;2022-08-03T12:36:54;1.20;;;1.10;;
22965;SDS011;11649;48.090;9.754;2022-08-03T12:39:23;1.30;;;1.20;;
22965;SDS011;11649;48.090;9.754;2022-08-03T12:41:53;1.33;;;1.23;;
22965;SDS011;11649;48.090;9.754;2022-08-03T12:44:30;1.52;;;1.40;;
22965;SDS011;11649;48.090;9.754;2022-08-03T12:47:00;1.30;;;1.20;;
22965;SDS011;11649;48.090;9.754;2022-08-03T12:49:28;1.40;;;1.30;;
22965;SDS011;11649;48.090;9.754;2022-08-03T12:52:10;2.08;;;1.30;;
22965;SDS011;11649;48.090;9.754;2022-08-03T12:54:37;1.35;;;1.25;;
22965;SDS011;11649;48.090;9.754;2022-08-03T12:57:05;1.25;;;1.15;;
22965;SDS011;11649;48.090;9.754;2022-08-03T12:59:33;1.33;;;1.20;;
22965;SDS011;11649;48.090;9.754;2022-08-03T13:04:44;2.10;;;1.30;;
22965;SDS011;11649;48.090;9.754;2022-08-03T13:07:13;1.73;;;1.17;;
22965;SDS011;11649;48.090;9.754;2022-08-03T13:09:50;1.20;;;1.10;;
22965;SDS011;11649;48.090;9.754;2022-08-03T13:12:22;0.90;;;0.90;;
22965;SDS011;11649;48.090;9.754;2022-08-03T13:14:51;1.10;;;1.00;;
22965;SDS011;11649;48.090;9.754;2022-08-03T13:17:22;1.63;;;1.17;;
22965;SDS011;11649;48.090;9.754;2022-08-03T13:19:49;1.40;;;1.10;;
22965;SDS011;11649;48.090;9.754;2022-08-03T13:22:18;1.38;;;1.10;;
22965;SDS011;11649;48.090;9.754;2022-08-03T13:24:51;1.45;;;1.30;;
22965;SDS011;11649;48.090;9.754;2022-08-03T13:27:21;2.47;;;1.10;;
22965;SDS011;11649;48.090;9.754;2022-08-03T13:30:08;1.25;;;1.15;;
22965;SDS011;11649;48.090;9.754;2022-08-03T13:32:35;1.20;;;0.90;;
22965;SDS011;11649;48.090;9.754;2022-08-03T13:35:02;1.27;;;1.10;;
22965;SDS011;11649;48.090;9.754;2022-08-03T13:37:30;1.15;;;0.90;;
22965;SDS011;11649;48.090;9.754;2022-08-03T13:39:57;1.30;;;1.13;;
22965;SDS011;11649;48.090;9.754;2022-08-03T13:42:28;1.30;;;1.20;;
22965;SDS011;11649;48.090;9.754;2022-08-03T13:44:59;1.80;;;1.08;;
22965;SDS011;11649;48.090;9.754;2022-08-03T13:47:27;0.90;;;0.90;;
22965;SDS011;11649;48.090;9.754;2022-08-03T13:49:54;0.98;;;0.95;;
22965;SDS011;11649;48.090;9.754;2022-08-03T13:52:36;1.33;;;1.10;;
22965;SDS011;11649;48.090;9.754;2022-08-03T13:55:04;1.10;;;1.00;;
22965;SDS011;11649;48.090;9.754;2022-08-03T13:57:32;1.52;;;1.15;;
22965;SDS011;11649;48.090;9.754;2022-08-03T14:00:20;1.98;;;1.15;;
22965;SDS011;11649;48.090;9.754;2022-08-03T14:02:55;1.10;;;1.00;;
22965;SDS011;11649;48.090;9.754;2022-08-03T14:05:30;1.35;;;1.00;;
22965;SDS011;11649;48.090;9.754;2022-08-03T14:07:58;2.47;;;1.00;;
22965;SDS011;11649;48.090;9.754;2022-08-03T14:10:30;1.83;;;1.00;;
22965;SDS011;11649;48.090;9.754;2022-08-03T14:13:01;0.80;;;0.80;;
22965;SDS011;11649;48.090;9.754;2022-08-03T14:15:29;2.15;;;1.13;;
22965;SDS011;11649;48.090;9.754;2022-08-03T14:18:02;1.43;;;1.03;;
22965;SDS011;11649;48.090;9.754;2022-08-03T14:20:30;1.67;;;1.05;;
22965;SDS011;11649;48.090;9.754;2022-08-03T14:23:04;0.93;;;0.80;;
22965;SDS011;11649;48.090;9.754;2022-08-03T14:25:32;1.98;;;1.15;;
22965;SDS011;11649;48.090;9.754;2022-08-03T14:28:16;4.72;;;1.05;;
22965;SDS011;11649;48.090;9.754;2022-08-03T14:30:43;0.90;;;0.80;;
22965;SDS011;11649;48.090;9.754;2022-08-03T14:33:10;2.47;;;1.20;;
22965;SDS011;11649;48.090;9.754;2022-08-03T14:35:37;1.20;;;0.90;;
22965;SDS011;11649;48.090;9.754;2022-08-03T14:38:04;2.45;;;0.90;;
22965;SDS011;11649;48.090;9.754;2022-08-03T14:40:31;1.13;;;1.00;;
22965;SDS011;11649;48.090;9.754;2022-08-03T14:42:58;1.25;;;1.08;;
22965;SDS011;11649;48.090;9.754;2022-08-03T14:45:24;1.95;;;1.10;;
22965;SDS011;11649;48.090;9.754;2022-08-03T14:47:51;1.30;;;1.00;;
22965;SDS011;11649;48.090;9.754;2022-08-03T14:50:38;1.55;;;1.00;;
22965;SDS011;11649;48.090;9.754;2022-08-03T14:53:12;1.05;;;0.90;;
22965;SDS011;11649;48.090;9.754;2022-08-03T14:55:39;0.90;;;0.80;;
22965;SDS011;11649;48.090;9.754;2022-08-03T14:58:16;2.25;;;0.80;;
22965;SDS011;11649;48.090;9.754;2022-08-03T15:00:48;1.10;;;1.00;;
22965;SDS011;11649;48.090;9.754;2022-08-03T15:03:16;1.10;;;0.93;;
22965;SDS011;11649;48.090;9.754;2022-08-03T15:05:46;1.08;;;1.00;;
22965;SDS011;11649;48.090;9.754;2022-08-03T15:08:13;1.27;;;1.17;;
22965;SDS011;11649;48.090;9.754;2022-08-03T15:10:40;3.85;;;1.10;;
22965;SDS011;11649;48.090;9.754;2022-08-03T15:13:10;3.28;;;1.10;;
22965;SDS011;11649;48.090;9.754;2022-08-03T15:15:38;1.38;;;1.27;;
22965;SDS011;11649;48.090;9.754;2022-08-03T15:18:05;1.52;;;1.40;;
22965;SDS011;11649;48.090;9.754;2022-08-03T15:20:32;1.42;;;1.20;;
22965;SDS011;11649;48.090;9.754;2022-08-03T15:23:14;1.80;;;1.00;;
22965;SDS011;11649;48.090;9.754;2022-08-03T15:25:43;3.90;;;1.10;;
22965;SDS011;11649;48.090;9.754;2022-08-03T15:28:30;1.10;;;1.00;;
22965;SDS011;11649;48.090;9.754;2022-08-03T15:30:57;1.55;;;0.95;;
22965;SDS011;11649;48.090;9.754;2022-08-03T15:33:25;1.02;;;1.00;;
22965;SDS011;11649;48.090;9.754;2022-08-03T15:35:52;4.70;;;1.10;;
22965;SDS011;11649;48.090;9.754;2022-08-03T15:38:19;2.13;;;1.02;;
22965;SDS011;11649;48.090;9.754;2022-08-03T15:40:51;1.13;;;0.90;;
22965;SDS011;11649;48.090;9.754;2022-08-03T15:43:20;2.10;;;0.85;;
22965;SDS011;11649;48.090;9.754;2022-08-03T15:45:47;1.13;;;1.00;;
22965;SDS011;11649;48.090;9.754;2022-08-03T15:48:34;2.20;;;1.10;;
22965;SDS011;11649;48.090;9.754;2022-08-03T15:51:01;2.72;;;0.95;;
22965;SDS011;11649;48.090;9.754;2022-08-03T15:53:29;1.35;;;1.08;;
22965;SDS011;11649;48.090;9.754;2022-08-03T15:55:56;1.30;;;0.93;;
22965;SDS011;11649;48.090;9.754;2022-08-03T15:58:23;1.08;;;1.00;;
22965;SDS011;11649;48.090;9.754;2022-08-03T16:01:14;1.10;;;1.10;;
22965;SDS011;11649;48.090;9.754;2022-08-03T16:03:45;1.08;;;0.98;;